Time,TemperatureF,DewpointF,PressureIn,WindDirection,WindDirectionDegrees,WindSpeedMPH,WindSpeedGustMPH,Humidity,HourlyPrecipIn,Conditions,Clouds,dailyrainin,SoftwareType,DateUTC
2017-05-23 00:05:00,50.3,44.7,30.01,SW,216,0.0,0.0,81,0.00,,,0.00,Wunderground v.1.15,2017-05-23 04:05:00,
2017-05-23 00:11:00,50.3,44.7,30.01,SW,216,0.0,0.0,81,0.00,,,0.00,Wunderground v.1.15,2017-05-23 04:11:00,
2017-05-23 00:18:00,50.4,45.1,30.00,SW,216,0.0,0.0,82,0.00,,,0.00,Wunderground v.1.15,2017-05-23 04:18:00,
2017-05-23 00:23:00,50.7,45.1,30.00,SW,216,0.0,0.0,81,0.00,,,0.00,Wunderground v.1.15,2017-05-23 04:23:00,
2017-05-23 00:29:00,50.5,44.6,30.00,SW,216,0.0,0.0,80,0.00,,,0.00,Wunderground v.1.15,2017-05-23 04:29:00,
2017-05-23 00:36:00,50.0,44.4,30.00,SW,216,0.0,0.0,81,0.00,,,0.00,Wunderground v.1.15,2017-05-23 04:36:00,
2017-05-23 00:41:00,49.9,44.6,30.00,SW,216,0.0,0.0,82,0.00,,,0.00,Wunderground v.1.15,2017-05-23 04:41:00,
2017-05-23 00:47:00,49.8,44.8,29.99,SW,216,0.0,0.0,83,0.00,,,0.00,Wunderground v.1.15,2017-05-23 04:47:00,
2017-05-23 00:54:00,49.6,45.0,29.99,SW,216,0.0,0.0,84,0.00,,,0.00,Wunderground v.1.15,2017-05-23 04:54:00,
2017-05-23 00:59:00,49.3,44.7,29.99,SW,216,0.0,0.0,84,0.00,,,0.00,Wunderground v.1.15,2017-05-23 04:59:00,
2017-05-23 01:05:00,49.1,44.8,29.99,SW,216,0.0,0.0,85,0.00,,,0.00,Wunderground v.1.15,2017-05-23 05:05:00,
2017-05-23 01:11:00,48.9,44.6,29.99,SW,216,0.0,0.0,85,0.00,,,0.00,Wunderground v.1.15,2017-05-23 05:11:00,
2017-05-23 01:18:00,48.7,44.7,29.99,SW,216,0.0,0.0,86,0.00,,,0.00,Wunderground v.1.15,2017-05-23 05:18:00,
2017-05-23 01:23:00,48.6,44.6,29.98,SW,216,0.0,0.0,86,0.00,,,0.00,Wunderground v.1.15,2017-05-23 05:23:00,
2017-05-23 01:29:00,48.6,44.9,29.98,SW,216,0.0,0.0,87,0.00,,,0.00,Wunderground v.1.15,2017-05-23 05:29:00,
2017-05-23 01:36:00,48.5,44.8,29.98,SW,216,0.0,0.0,87,0.00,,,0.00,Wunderground v.1.15,2017-05-23 05:36:00,
2017-05-23 01:42:00,48.4,44.4,29.98,SW,216,0.0,0.0,86,0.00,,,0.00,Wunderground v.1.15,2017-05-23 05:42:00,
2017-05-23 01:47:00,48.2,44.2,29.98,SW,216,0.0,0.0,86,0.00,,,0.00,Wunderground v.1.15,2017-05-23 05:47:00,
2017-05-23 01:53:00,48.1,44.1,29.98,SW,216,0.0,0.0,86,0.00,,,0.00,Wunderground v.1.15,2017-05-23 05:53:00,
2017-05-23 02:00:00,47.9,44.2,29.98,SW,216,0.0,0.0,87,0.00,,,0.00,Wunderground v.1.15,2017-05-23 06:00:00,
2017-05-23 02:06:00,47.9,44.2,29.98,SW,216,0.0,0.0,87,0.00,,,0.00,Wunderground v.1.15,2017-05-23 06:06:00,
2017-05-23 02:11:00,47.9,44.5,29.97,SW,216,0.0,0.0,88,0.00,,,0.00,Wunderground v.1.15,2017-05-23 06:11:00,
2017-05-23 02:17:00,47.9,44.5,29.97,SW,216,0.0,0.0,88,0.00,,,0.00,Wunderground v.1.15,2017-05-23 06:17:00,
2017-05-23 02:23:00,47.7,44.0,29.98,SW,216,0.0,0.0,87,0.00,,,0.00,Wunderground v.1.15,2017-05-23 06:23:00,
2017-05-23 02:30:00,47.5,44.1,29.98,SW,215,0.0,0.0,88,0.00,,,0.00,Wunderground v.1.15,2017-05-23 06:30:00,
2017-05-23 02:35:00,47.3,43.9,29.98,SW,215,0.0,0.0,88,0.00,,,0.00,Wunderground v.1.15,2017-05-23 06:35:00,
2017-05-23 02:41:00,47.2,43.8,29.98,SW,214,0.0,0.0,88,0.00,,,0.00,Wunderground v.1.15,2017-05-23 06:41:00,
2017-05-23 02:47:00,47.2,44.1,29.98,SSW,211,0.0,0.0,89,0.00,,,0.00,Wunderground v.1.15,2017-05-23 06:47:00,
2017-05-23 02:53:00,47.3,44.5,29.98,East,88,0.0,0.0,90,0.00,,,0.00,Wunderground v.1.15,2017-05-23 06:53:00,
2017-05-23 02:59:00,47.6,44.8,29.97,East,88,0.0,0.0,90,0.00,,,0.00,Wunderground v.1.15,2017-05-23 06:59:00,
2017-05-23 03:05:00,47.7,44.6,29.97,East,88,0.0,0.0,89,0.00,,,0.00,Wunderground v.1.15,2017-05-23 07:05:00,
2017-05-23 03:11:00,47.4,44.0,29.97,East,88,0.0,0.0,88,0.00,,,0.00,Wunderground v.1.15,2017-05-23 07:11:00,
2017-05-23 03:17:00,47.2,44.1,29.97,East,88,0.0,0.0,89,0.00,,,0.00,Wunderground v.1.15,2017-05-23 07:17:00,
2017-05-23 03:24:00,47.2,44.1,29.97,ENE,64,0.0,0.0,89,0.00,,,0.00,Wunderground v.1.15,2017-05-23 07:24:00,
2017-05-23 03:29:00,47.2,44.4,29.96,ENE,63,0.0,1.0,90,0.00,,,0.00,Wunderground v.1.15,2017-05-23 07:29:00,
2017-05-23 03:35:00,47.2,44.4,29.96,ENE,63,0.0,0.0,90,0.00,,,0.00,Wunderground v.1.15,2017-05-23 07:35:00,
2017-05-23 03:41:00,47.0,44.0,29.96,ENE,63,0.0,1.0,90,0.00,,,0.00,weatherlink.com 1.10,2017-05-23 07:41:00,
2017-05-23 03:48:00,46.8,44.0,29.96,ENE,63,0.0,0.0,90,0.00,,,0.00,Wunderground v.1.15,2017-05-23 07:48:00,
2017-05-23 03:53:00,46.7,44.2,29.96,ENE,63,0.0,0.0,91,0.00,,,0.00,Wunderground v.1.15,2017-05-23 07:53:00,
2017-05-23 03:59:00,46.7,44.2,29.96,ENE,63,0.0,0.0,91,0.00,,,0.00,Wunderground v.1.15,2017-05-23 07:59:00,
2017-05-23 04:06:00,46.7,44.2,29.96,ENE,63,0.0,0.0,91,0.00,,,0.00,Wunderground v.1.15,2017-05-23 08:06:00,
2017-05-23 04:11:00,46.9,44.4,29.96,ENE,63,0.0,0.0,91,0.00,,,0.00,Wunderground v.1.15,2017-05-23 08:11:00,
2017-05-23 04:17:00,47.0,44.5,29.96,ENE,63,0.0,0.0,91,0.00,,,0.00,Wunderground v.1.15,2017-05-23 08:17:00,
2017-05-23 04:23:00,47.0,44.5,29.96,ENE,63,0.0,0.0,91,0.00,,,0.00,Wunderground v.1.15,2017-05-23 08:23:00,
2017-05-23 04:30:00,47.0,44.5,29.96,ENE,63,0.0,0.0,91,0.00,,,0.00,Wunderground v.1.15,2017-05-23 08:30:00,
2017-05-23 04:36:00,46.9,44.1,29.96,ENE,63,0.0,0.0,90,0.00,,,0.00,Wunderground v.1.15,2017-05-23 08:36:00,
2017-05-23 04:41:00,46.6,44.0,29.96,ENE,63,0.0,0.0,90,0.00,,,0.00,weatherlink.com 1.10,2017-05-23 08:41:00,
2017-05-23 04:47:00,46.4,43.6,29.96,ENE,63,0.0,0.0,90,0.00,,,0.00,Wunderground v.1.15,2017-05-23 08:47:00,
2017-05-23 04:54:00,46.3,43.8,29.96,ENE,63,0.0,0.0,91,0.00,,,0.00,Wunderground v.1.15,2017-05-23 08:54:00,
2017-05-23 04:59:00,46.2,43.7,29.96,ENE,63,0.0,0.0,91,0.00,,,0.00,Wunderground v.1.15,2017-05-23 08:59:00,
2017-05-23 05:05:00,46.1,43.6,29.96,ENE,63,0.0,0.0,91,0.00,,,0.00,Wunderground v.1.15,2017-05-23 09:05:00,
2017-05-23 05:11:00,46.0,44.0,29.96,ENE,63,0.0,1.0,91,0.00,,,0.00,weatherlink.com 1.10,2017-05-23 09:11:00,
2017-05-23 05:18:00,45.9,43.4,29.96,ENE,63,0.0,0.0,91,0.00,,,0.00,Wunderground v.1.15,2017-05-23 09:18:00,
2017-05-23 05:23:00,45.8,43.6,29.96,ENE,63,0.0,0.0,92,0.00,,,0.00,Wunderground v.1.15,2017-05-23 09:23:00,
2017-05-23 05:30:00,45.9,43.7,29.96,ENE,63,0.0,0.0,92,0.00,,,0.00,Wunderground v.1.15,2017-05-23 09:30:00,
2017-05-23 05:36:00,46.1,43.9,29.96,ENE,63,0.0,0.0,92,0.00,,,0.00,Wunderground v.1.15,2017-05-23 09:36:00,
2017-05-23 05:41:00,46.2,44.0,29.96,ENE,63,0.0,0.0,92,0.00,,,0.00,Wunderground v.1.15,2017-05-23 09:41:00,
2017-05-23 05:47:00,46.1,43.9,29.96,ENE,63,0.0,0.0,92,0.00,,,0.00,Wunderground v.1.15,2017-05-23 09:47:00,
2017-05-23 05:54:00,46.1,43.9,29.96,ENE,63,0.0,0.0,92,0.00,,,0.00,Wunderground v.1.15,2017-05-23 09:54:00,
2017-05-23 05:59:00,46.3,44.1,29.96,ENE,63,0.0,0.0,92,0.00,,,0.00,Wunderground v.1.15,2017-05-23 09:59:00,
2017-05-23 06:05:00,46.3,44.1,29.95,ENE,63,0.0,0.0,92,0.00,,,0.00,Wunderground v.1.15,2017-05-23 10:05:00,
2017-05-23 06:11:00,46.4,44.2,29.96,ENE,63,0.0,0.0,92,0.00,,,0.00,Wunderground v.1.15,2017-05-23 10:11:00,
2017-05-23 06:18:00,46.5,44.3,29.96,ENE,63,0.0,0.0,92,0.00,,,0.00,Wunderground v.1.15,2017-05-23 10:18:00,
2017-05-23 06:24:00,46.7,44.5,29.96,ENE,63,0.0,0.0,92,0.00,,,0.00,Wunderground v.1.15,2017-05-23 10:24:00,
2017-05-23 06:29:00,47.1,44.9,29.95,ENE,63,0.0,0.0,92,0.00,,,0.00,Wunderground v.1.15,2017-05-23 10:29:00,
2017-05-23 06:35:00,47.6,45.4,29.95,ENE,63,0.0,0.0,92,0.00,,,0.00,Wunderground v.1.15,2017-05-23 10:35:00,
2017-05-23 06:42:00,47.9,45.7,29.95,ENE,63,0.0,0.0,92,0.00,,,0.00,Wunderground v.1.15,2017-05-23 10:42:00,
2017-05-23 06:47:00,48.3,46.1,29.95,ENE,63,0.0,0.0,92,0.00,,,0.00,Wunderground v.1.15,2017-05-23 10:47:00,
2017-05-23 06:53:00,48.7,46.5,29.95,ENE,63,0.0,0.0,92,0.00,,,0.00,Wunderground v.1.15,2017-05-23 10:53:00,
2017-05-23 07:00:00,49.2,47.0,29.95,ENE,63,0.0,0.0,92,0.00,,,0.00,Wunderground v.1.15,2017-05-23 11:00:00,
2017-05-23 07:06:00,49.5,47.3,29.96,ENE,63,0.0,0.0,92,0.00,,,0.00,Wunderground v.1.15,2017-05-23 11:06:00,
2017-05-23 07:11:00,50.0,47.8,29.96,ENE,63,0.0,0.0,92,0.00,,,0.00,Wunderground v.1.15,2017-05-23 11:11:00,
2017-05-23 07:17:00,50.5,48.3,29.96,ENE,63,0.0,0.0,92,0.00,,,0.00,Wunderground v.1.15,2017-05-23 11:17:00,
2017-05-23 07:23:00,51.0,48.8,29.96,ENE,63,0.0,0.0,92,0.00,,,0.00,Wunderground v.1.15,2017-05-23 11:23:00,
2017-05-23 07:30:00,51.5,49.3,29.96,ENE,63,0.0,0.0,92,0.00,,,0.00,Wunderground v.1.15,2017-05-23 11:30:00,
2017-05-23 07:35:00,51.8,49.3,29.96,ENE,63,0.0,0.0,91,0.00,,,0.00,Wunderground v.1.15,2017-05-23 11:35:00,
2017-05-23 07:41:00,52.2,49.4,29.95,ENE,63,0.0,0.0,90,0.00,,,0.00,Wunderground v.1.15,2017-05-23 11:41:00,
2017-05-23 07:47:00,52.7,49.8,29.96,ENE,63,0.0,0.0,90,0.00,,,0.00,Wunderground v.1.15,2017-05-23 11:47:00,
2017-05-23 07:53:00,53.2,49.7,29.95,ENE,63,0.0,0.0,88,0.00,,,0.00,Wunderground v.1.15,2017-05-23 11:53:00,
2017-05-23 07:58:00,53.6,50.0,29.95,ENE,63,0.0,1.0,87,0.00,,,0.00,weatherlink.com 1.10,2017-05-23 11:58:00,
2017-05-23 08:04:00,53.7,49.6,29.95,ENE,63,0.0,0.0,86,0.00,,,0.00,Wunderground v.1.15,2017-05-23 12:04:00,
2017-05-23 08:09:00,53.9,49.8,29.95,ENE,63,0.0,0.0,86,0.00,,,0.00,Wunderground v.1.15,2017-05-23 12:09:00,
2017-05-23 08:16:00,54.2,49.8,29.95,ENE,63,0.0,0.0,85,0.00,,,0.00,Wunderground v.1.15,2017-05-23 12:16:00,
2017-05-23 08:22:00,54.4,50.0,29.95,ENE,63,0.0,0.0,85,0.00,,,0.00,Wunderground v.1.15,2017-05-23 12:22:00,
2017-05-23 08:27:00,54.5,49.8,29.96,ENE,63,0.0,0.0,84,0.00,,,0.00,Wunderground v.1.15,2017-05-23 12:27:00,
2017-05-23 08:33:00,55.0,50.3,29.96,ENE,63,0.0,0.0,84,0.00,,,0.00,Wunderground v.1.15,2017-05-23 12:33:00,
2017-05-23 08:40:00,55.7,50.6,29.96,ENE,63,0.0,0.0,83,0.00,,,0.00,Wunderground v.1.15,2017-05-23 12:40:00,
2017-05-23 08:45:00,56.4,51.3,29.96,ENE,63,0.0,0.0,83,0.00,,,0.00,Wunderground v.1.15,2017-05-23 12:45:00,
2017-05-23 08:51:00,57.0,51.6,29.96,ENE,63,0.0,0.0,82,0.00,,,0.00,Wunderground v.1.15,2017-05-23 12:51:00,
2017-05-23 08:57:00,57.5,51.0,29.95,ENE,63,0.0,0.0,79,0.00,,,0.00,Wunderground v.1.15,2017-05-23 12:57:00,
2017-05-23 09:04:00,58.0,51.5,29.95,ENE,63,0.0,0.0,79,0.00,,,0.00,Wunderground v.1.15,2017-05-23 13:04:00,
2017-05-23 09:10:00,58.5,52.0,29.95,ENE,63,0.0,0.0,79,0.00,,,0.00,Wunderground v.1.15,2017-05-23 13:10:00,
2017-05-23 09:15:00,58.7,51.9,29.94,ENE,63,0.0,0.0,78,0.00,,,0.00,Wunderground v.1.15,2017-05-23 13:15:00,
2017-05-23 09:21:00,58.9,52.4,29.95,ENE,63,0.0,0.0,79,0.00,,,0.00,Wunderground v.1.15,2017-05-23 13:21:00,
2017-05-23 09:27:00,59.3,52.4,29.94,ENE,63,0.0,0.0,78,0.00,,,0.00,Wunderground v.1.15,2017-05-23 13:27:00,
2017-05-23 09:34:00,59.7,52.8,29.95,ENE,63,0.0,0.0,78,0.00,,,0.00,Wunderground v.1.15,2017-05-23 13:34:00,
2017-05-23 09:39:00,60.0,52.8,29.95,ENE,63,0.0,0.0,77,0.00,,,0.00,Wunderground v.1.15,2017-05-23 13:39:00,
2017-05-23 09:45:00,60.0,52.4,29.94,ENE,63,0.0,0.0,76,0.00,,,0.00,Wunderground v.1.15,2017-05-23 13:45:00,
2017-05-23 09:52:00,60.3,53.1,29.94,ENE,63,0.0,0.0,77,0.00,,,0.00,Wunderground v.1.15,2017-05-23 13:52:00,
2017-05-23 09:57:00,60.7,52.7,29.95,ENE,63,0.0,0.0,75,0.00,,,0.00,Wunderground v.1.15,2017-05-23 13:57:00,
2017-05-23 10:04:00,60.8,51.7,29.95,ENE,63,0.0,0.0,72,0.00,,,0.00,Wunderground v.1.15,2017-05-23 14:04:00,
2017-05-23 10:09:00,61.2,52.5,29.95,ENE,63,0.0,0.0,73,0.00,,,0.00,Wunderground v.1.15,2017-05-23 14:09:00,
2017-05-23 10:15:00,61.9,53.0,29.95,ENE,64,0.0,1.0,72,0.00,,,0.00,weatherlink.com 1.10,2017-05-23 14:15:00,
2017-05-23 10:21:00,62.3,52.4,29.95,ENE,64,0.0,0.0,70,0.00,,,0.00,Wunderground v.1.15,2017-05-23 14:21:00,
2017-05-23 10:27:00,62.0,52.5,29.96,ENE,66,0.0,0.0,71,0.00,,,0.00,Wunderground v.1.15,2017-05-23 14:27:00,
2017-05-23 10:33:00,61.8,52.3,29.96,SE,138,0.0,0.0,71,0.00,,,0.00,Wunderground v.1.15,2017-05-23 14:33:00,
2017-05-23 10:39:00,61.9,52.4,29.96,SE,138,0.0,0.0,71,0.00,,,0.00,Wunderground v.1.15,2017-05-23 14:39:00,
2017-05-23 10:44:00,62.3,54.0,29.96,SE,138,0.0,0.0,73,0.00,,,0.00,weatherlink.com 1.10,2017-05-23 14:44:00,
2017-05-23 10:51:00,63.0,53.8,29.95,SE,138,0.0,0.0,72,0.00,,,0.00,Wunderground v.1.15,2017-05-23 14:51:00,
2017-05-23 10:58:00,63.4,53.8,29.96,SE,138,0.0,0.0,71,0.00,,,0.00,Wunderground v.1.15,2017-05-23 14:58:00,
2017-05-23 11:04:00,63.6,53.6,29.95,SE,138,0.0,0.0,70,0.00,,,0.00,Wunderground v.1.15,2017-05-23 15:04:00,
2017-05-23 11:09:00,63.8,53.8,29.95,SE,138,0.0,0.0,70,0.00,,,0.00,Wunderground v.1.15,2017-05-23 15:09:00,
2017-05-23 11:15:00,64.4,53.2,29.94,SE,138,0.0,0.0,67,0.00,,,0.00,Wunderground v.1.15,2017-05-23 15:15:00,
2017-05-23 11:19:00,64.8,53.6,29.94,SE,138,0.0,0.0,67,0.00,,,0.00,Wunderground v.1.15,2017-05-23 15:19:00,
2017-05-23 11:25:00,65.7,54.4,29.94,SE,138,0.0,0.0,67,0.00,,,0.00,Wunderground v.1.15,2017-05-23 15:25:00,
2017-05-23 11:31:00,66.9,55.0,29.94,SE,138,0.0,0.0,65,0.00,,,0.00,weatherlink.com 1.10,2017-05-23 15:31:00,
2017-05-23 11:37:00,66.3,53.8,29.94,SE,138,0.0,0.0,64,0.00,,,0.00,Wunderground v.1.15,2017-05-23 15:37:00,
2017-05-23 11:45:00,66.5,54.0,29.93,SE,138,0.0,0.0,64,0.00,,,0.00,weatherlink.com 1.10,2017-05-23 15:45:00,
2017-05-23 11:52:00,67.4,54.4,29.93,SE,138,0.0,0.0,63,0.00,,,0.00,Wunderground v.1.15,2017-05-23 15:52:00,
2017-05-23 11:57:00,68.3,53.4,29.92,SE,138,0.0,0.0,59,0.00,,,0.00,Wunderground v.1.15,2017-05-23 15:57:00,
2017-05-23 12:04:00,68.5,54.1,29.92,SE,138,0.0,0.0,60,0.00,,,0.00,Wunderground v.1.15,2017-05-23 16:04:00,
2017-05-23 12:10:00,68.9,54.4,29.92,SE,138,0.0,0.0,60,0.00,,,0.00,Wunderground v.1.15,2017-05-23 16:10:00,
2017-05-23 12:15:00,69.4,55.4,29.92,SE,138,0.0,0.0,61,0.00,,,0.00,Wunderground v.1.15,2017-05-23 16:15:00,
2017-05-23 12:21:00,70.9,54.4,29.92,ESE,121,0.0,5.0,56,0.00,,,0.00,Wunderground v.1.15,2017-05-23 16:21:00,
2017-05-23 12:27:00,70.6,53.6,29.92,ESE,121,0.0,0.0,55,0.00,,,0.00,Wunderground v.1.15,2017-05-23 16:27:00,
2017-05-23 12:33:00,70.2,52.3,29.91,ESE,121,0.0,0.0,53,0.00,,,0.00,Wunderground v.1.15,2017-05-23 16:33:00,
2017-05-23 12:39:00,69.5,52.6,29.91,ESE,121,0.0,0.0,55,0.00,,,0.00,Wunderground v.1.15,2017-05-23 16:39:00,
2017-05-23 12:45:00,69.8,53.4,29.91,ESE,121,0.0,0.0,56,0.00,,,0.00,Wunderground v.1.15,2017-05-23 16:45:00,
2017-05-23 12:51:00,70.2,51.7,29.91,ESE,121,0.0,0.0,52,0.00,,,0.00,Wunderground v.1.15,2017-05-23 16:51:00,
2017-05-23 12:57:00,70.0,52.6,29.91,ESE,121,0.0,0.0,54,0.00,,,0.00,Wunderground v.1.15,2017-05-23 16:57:00,
2017-05-23 13:04:00,69.1,49.7,29.91,ESE,121,1.0,3.0,50,0.00,,,0.00,Wunderground v.1.15,2017-05-23 17:04:00,
2017-05-23 13:09:00,67.2,50.0,29.91,ESE,121,2.0,4.0,54,0.00,,,0.00,Wunderground v.1.15,2017-05-23 17:09:00,
2017-05-23 13:15:00,66.9,49.7,29.91,ESE,121,0.0,1.0,54,0.00,,,0.00,Wunderground v.1.15,2017-05-23 17:15:00,
2017-05-23 13:21:00,66.6,49.4,29.90,ESE,121,1.0,1.0,54,0.00,,,0.00,Wunderground v.1.15,2017-05-23 17:21:00,
2017-05-23 13:28:00,67.0,50.8,29.89,ESE,121,1.0,2.0,56,0.00,,,0.00,Wunderground v.1.15,2017-05-23 17:28:00,
2017-05-23 13:33:00,67.7,52.9,29.89,ESE,121,0.0,0.0,59,0.00,,,0.00,Wunderground v.1.15,2017-05-23 17:33:00,
2017-05-23 13:40:00,69.6,52.2,29.89,ESE,121,0.0,0.0,54,0.00,,,0.00,Wunderground v.1.15,2017-05-23 17:40:00,
2017-05-23 13:45:00,71.3,53.8,29.89,ESE,121,0.0,0.0,54,0.00,,,0.00,Wunderground v.1.15,2017-05-23 17:45:00,
2017-05-23 13:51:00,70.6,51.6,29.89,ESE,121,1.0,7.0,51,0.00,,,0.00,Wunderground v.1.15,2017-05-23 17:51:00,
2017-05-23 13:57:00,69.4,53.0,29.89,ESE,118,1.0,1.0,56,0.00,,,0.00,Wunderground v.1.15,2017-05-23 17:57:00,
2017-05-23 14:03:00,70.1,52.0,29.88,SE,133,0.0,7.0,53,0.00,,,0.00,weatherlink.com 1.10,2017-05-23 18:03:00,
2017-05-23 14:09:00,70.1,51.7,29.88,SE,130,0.0,0.0,52,0.00,,,0.00,Wunderground v.1.15,2017-05-23 18:09:00,
2017-05-23 14:15:00,71.0,52.0,29.88,SE,128,1.0,1.0,51,0.00,,,0.00,Wunderground v.1.15,2017-05-23 18:15:00,
2017-05-23 14:21:00,72.2,53.6,29.88,SE,128,1.0,1.0,52,0.00,,,0.00,Wunderground v.1.15,2017-05-23 18:21:00,
2017-05-23 14:27:00,73.3,55.1,29.88,East,85,0.0,0.0,53,0.00,,,0.00,Wunderground v.1.15,2017-05-23 18:27:00,
2017-05-23 14:34:00,74.3,52.2,29.87,ESE,111,0.0,0.0,46,0.00,,,0.00,Wunderground v.1.15,2017-05-23 18:34:00,
2017-05-23 14:39:00,73.6,50.9,29.87,SSW,194,0.0,3.0,45,0.00,,,0.00,Wunderground v.1.15,2017-05-23 18:39:00,
2017-05-23 14:45:00,71.5,51.9,29.87,SSW,194,0.0,0.0,50,0.00,,,0.00,Wunderground v.1.15,2017-05-23 18:45:00,
2017-05-23 14:51:00,72.3,53.2,29.86,SE,127,0.0,0.0,51,0.00,,,0.00,Wunderground v.1.15,2017-05-23 18:51:00,
2017-05-23 14:58:00,73.3,53.5,29.86,SE,142,0.0,0.0,50,0.00,,,0.00,Wunderground v.1.15,2017-05-23 18:58:00,
2017-05-23 15:03:00,71.0,51.0,29.87,SSE,147,0.0,9.0,49,0.00,,,0.00,weatherlink.com 1.10,2017-05-23 19:03:00,
2017-05-23 15:09:00,70.9,51.3,29.87,East,80,2.0,2.0,50,0.00,,,0.00,Wunderground v.1.15,2017-05-23 19:09:00,
2017-05-23 15:16:00,72.4,54.3,29.86,East,80,0.0,0.0,53,0.00,,,0.00,Wunderground v.1.15,2017-05-23 19:16:00,
2017-05-23 15:21:00,73.2,51.2,29.86,East,80,0.0,0.0,46,0.00,,,0.00,Wunderground v.1.15,2017-05-23 19:21:00,
2017-05-23 15:27:00,71.2,49.9,29.86,East,80,2.0,5.0,47,0.00,,,0.00,Wunderground v.1.15,2017-05-23 19:27:00,
2017-05-23 15:33:00,70.5,50.0,29.86,East,80,1.0,9.0,49,0.00,,,0.00,weatherlink.com 1.10,2017-05-23 19:33:00,